sensor_id;sensor_type;location;lat;lon;timestamp;temperature;humidity
18191;DHT22;47004;51.366;12.348;2023-09-08T00:00:50;19.00;99.90
18191;DHT22;47004;51.366;12.348;2023-09-08T00:02:52;19.00;99.90
18191;DHT22;47004;51.366;12.348;2023-09-08T00:04:54;19.00;99.90
18191;DHT22;47004;51.366;12.348;2023-09-08T00:06:56;18.90;99.90
18191;DHT22;47004;51.366;12.348;2023-09-08T00:08:58;18.90;99.90
18191;DHT22;47004;51.366;12.348;2023-09-08T00:11:00;18.90;99.90
18191;DHT22;47004;51.366;12.348;2023-09-08T00:13:01;18.80;99.90
18191;DHT22;47004;51.366;12.348;2023-09-08T00:15:06;18.80;99.90
18191;DHT22;47004;51.366;12.348;2023-09-08T00:17:09;18.80;99.90
18191;DHT22;47004;51.366;12.348;2023-09-08T00:19:10;18.80;99.90
18191;DHT22;47004;51.366;12.348;2023-09-08T00:21:12;18.70;99.90
18191;DHT22;47004;51.366;12.348;2023-09-08T00:23:13;18.70;99.90
18191;DHT22;47004;51.366;12.348;2023-09-08T00:25:15;18.70;99.90
18191;DHT22;47004;51.366;12.348;2023-09-08T00:27:17;18.70;99.90
18191;DHT22;47004;51.366;12.348;2023-09-08T00:29:19;18.60;99.90
18191;DHT22;47004;51.366;12.348;2023-09-08T00:31:21;18.60;99.90
18191;DHT22;47004;51.366;12.348;2023-09-08T00:33:24;18.60;99.90
18191;DHT22;47004;51.366;12.348;2023-09-08T00:35:26;18.60;99.90
18191;DHT22;47004;51.366;12.348;2023-09-08T00:37:28;18.60;99.90
18191;DHT22;47004;51.366;12.348;2023-09-08T00:39:30;18.60;99.90
18191;DHT22;47004;51.366;12.348;2023-09-08T00:41:32;18.50;99.90
18191;DHT22;47004;51.366;12.348;2023-09-08T00:43:34;18.50;99.90
18191;DHT22;47004;51.366;12.348;2023-09-08T00:45:38;18.50;99.90
18191;DHT22;47004;51.366;12.348;2023-09-08T00:47:42;18.40;99.90
18191;DHT22;47004;51.366;12.348;2023-09-08T00:49:45;18.40;99.90
18191;DHT22;47004;51.366;12.348;2023-09-08T00:51:49;18.40;99.90
18191;DHT22;47004;51.366;12.348;2023-09-08T00:53:51;18.40;99.90
18191;DHT22;47004;51.366;12.348;2023-09-08T00:55:54;18.40;99.90
18191;DHT22;47004;51.366;12.348;2023-09-08T00:57:56;18.30;99.90
18191;DHT22;47004;51.366;12.348;2023-09-08T00:59:59;18.30;99.90
18191;DHT22;47004;51.366;12.348;2023-09-08T01:02:02;18.30;99.90
18191;DHT22;47004;51.366;12.348;2023-09-08T01:04:03;18.30;99.90
18191;DHT22;47004;51.366;12.348;2023-09-08T01:06:06;18.30;99.90
18191;DHT22;47004;51.366;12.348;2023-09-08T01:08:09;18.30;99.90
18191;DHT22;47004;51.366;12.348;2023-09-08T01:10:11;18.20;99.90
18191;DHT22;47004;51.366;12.348;2023-09-08T01:12:14;18.20;99.90
18191;DHT22;47004;51.366;12.348;2023-09-08T01:14:18;18.20;99.90
18191;DHT22;47004;51.366;12.348;2023-09-08T01:16:20;18.20;99.90
18191;DHT22;47004;51.366;12.348;2023-09-08T01:18:21;18.10;99.90
18191;DHT22;47004;51.366;12.348;2023-09-08T01:20:25;18.10;99.90
18191;DHT22;47004;51.366;12.348;2023-09-08T01:22:45;18.10;99.90
18191;DHT22;47004;51.366;12.348;2023-09-08T01:25:22;18.10;99.90
18191;DHT22;47004;51.366;12.348;2023-09-08T01:27:25;18.00;99.90
18191;DHT22;47004;51.366;12.348;2023-09-08T01:29:26;18.00;99.90
18191;DHT22;47004;51.366;12.348;2023-09-08T01:31:29;18.00;99.90
18191;DHT22;47004;51.366;12.348;2023-09-08T01:33:31;18.00;99.90
18191;DHT22;47004;51.366;12.348;2023-09-08T01:35:34;18.00;99.90
18191;DHT22;47004;51.366;12.348;2023-09-08T01:37:36;17.90;99.90
18191;DHT22;47004;51.366;12.348;2023-09-08T01:39:40;17.90;99.90
18191;DHT22;47004;51.366;12.348;2023-09-08T01:41:44;17.90;99.90
18191;DHT22;47004;51.366;12.348;2023-09-08T01:43:45;17.90;99.90
18191;DHT22;47004;51.366;12.348;2023-09-08T01:45:47;17.80;99.90
18191;DHT22;47004;51.366;12.348;2023-09-08T01:47:49;17.80;99.90
18191;DHT22;47004;51.366;12.348;2023-09-08T01:49:51;17.80;99.90
18191;DHT22;47004;51.366;12.348;2023-09-08T01:51:53;17.80;99.90
18191;DHT22;47004;51.366;12.348;2023-09-08T01:53:56;17.70;99.90
18191;DHT22;47004;51.366;12.348;2023-09-08T01:55:57;17.70;99.90
18191;DHT22;47004;51.366;12.348;2023-09-08T01:58:00;17.70;99.90
18191;DHT22;47004;51.366;12.348;2023-09-08T02:00:03;17.60;99.90
18191;DHT22;47004;51.366;12.348;2023-09-08T02:02:06;17.60;99.90
18191;DHT22;47004;51.366;12.348;2023-09-08T02:04:08;17.60;99.90
18191;DHT22;47004;51.366;12.348;2023-09-08T02:06:10;17.60;99.90
18191;DHT22;47004;51.366;12.348;2023-09-08T02:08:11;17.50;99.90
18191;DHT22;47004;51.366;12.348;2023-09-08T02:10:15;17.50;99.90
18191;DHT22;47004;51.366;12.348;2023-09-08T02:12:17;17.50;99.90
18191;DHT22;47004;51.366;12.348;2023-09-08T02:14:20;17.50;99.90
18191;DHT22;47004;51.366;12.348;2023-09-08T02:16:22;17.40;99.90
18191;DHT22;47004;51.366;12.348;2023-09-08T02:18:25;17.40;99.90
18191;DHT22;47004;51.366;12.348;2023-09-08T02:20:29;17.40;99.90
18191;DHT22;47004;51.366;12.348;2023-09-08T02:22:30;17.30;99.90
18191;DHT22;47004;51.366;12.348;2023-09-08T02:24:32;17.30;99.90
18191;DHT22;47004;51.366;12.348;2023-09-08T02:26:34;17.30;99.90
18191;DHT22;47004;51.366;12.348;2023-09-08T02:28:36;17.30;99.90
18191;DHT22;47004;51.366;12.348;2023-09-08T02:30:40;17.20;99.90
18191;DHT22;47004;51.366;12.348;2023-09-08T02:32:42;17.20;99.90
18191;DHT22;47004;51.366;12.348;2023-09-08T02:34:43;17.20;99.90
18191;DHT22;47004;51.366;12.348;2023-09-08T02:36:45;17.20;99.90
18191;DHT22;47004;51.366;12.348;2023-09-08T02:38:51;17.10;99.90
18191;DHT22;47004;51.366;12.348;2023-09-08T02:40:52;17.10;99.90
18191;DHT22;47004;51.366;12.348;2023-09-08T02:42:54;17.10;99.90
18191;DHT22;47004;51.366;12.348;2023-09-08T02:44:56;17.10;99.90
18191;DHT22;47004;51.366;12.348;2023-09-08T02:46:59;17.00;99.90
18191;DHT22;47004;51.366;12.348;2023-09-08T02:49:01;17.00;99.90
18191;DHT22;47004;51.366;12.348;2023-09-08T02:51:03;17.00;99.90
18191;DHT22;47004;51.366;12.348;2023-09-08T02:53:05;17.00;99.90
18191;DHT22;47004;51.366;12.348;2023-09-08T02:55:07;17.00;99.90
18191;DHT22;47004;51.366;12.348;2023-09-08T02:57:09;17.00;99.90
18191;DHT22;47004;51.366;12.348;2023-09-08T02:59:11;16.90;99.90
18191;DHT22;47004;51.366;12.348;2023-09-08T03:01:14;16.90;99.90
18191;DHT22;47004;51.366;12.348;2023-09-08T03:03:17;16.90;99.90
18191;DHT22;47004;51.366;12.348;2023-09-08T03:05:18;16.90;99.90
18191;DHT22;47004;51.366;12.348;2023-09-08T03:07:20;16.90;99.90
18191;DHT22;47004;51.366;12.348;2023-09-08T03:09:22;16.80;99.90
18191;DHT22;47004;51.366;12.348;2023-09-08T03:11:24;16.80;99.90
18191;DHT22;47004;51.366;12.348;2023-09-08T03:13:25;16.80;99.90
18191;DHT22;47004;51.366;12.348;2023-09-08T03:15:29;16.80;99.90
18191;DHT22;47004;51.366;12.348;2023-09-08T03:17:31;16.80;99.90
18191;DHT22;47004;51.366;12.348;2023-09-08T03:19:34;16.70;99.90
18191;DHT22;47004;51.366;12.348;2023-09-08T03:21:36;16.70;99.90
18191;DHT22;47004;51.366;12.348;2023-09-08T03:23:39;16.70;99.90
18191;DHT22;47004;51.366;12.348;2023-09-08T03:25:41;16.70;99.90
18191;DHT22;47004;51.366;12.348;2023-09-08T03:27:43;16.60;99.90
18191;DHT22;47004;51.366;12.348;2023-09-08T03:29:45;16.60;99.90
18191;DHT22;47004;51.366;12.348;2023-09-08T03:31:47;16.60;99.90
18191;DHT22;47004;51.366;12.348;2023-09-08T03:33:51;16.60;99.90
18191;DHT22;47004;51.366;12.348;2023-09-08T03:35:54;16.60;99.90
18191;DHT22;47004;51.366;12.348;2023-09-08T03:37:56;16.50;99.90
18191;DHT22;47004;51.366;12.348;2023-09-08T03:39:59;16.50;99.90
18191;DHT22;47004;51.366;12.348;2023-09-08T03:42:00;16.50;99.90
18191;DHT22;47004;51.366;12.348;2023-09-08T03:44:03;16.50;99.90
18191;DHT22;47004;51.366;12.348;2023-09-08T03:46:05;16.40;99.90
18191;DHT22;47004;51.366;12.348;2023-09-08T03:48:11;16.40;99.90
18191;DHT22;47004;51.366;12.348;2023-09-08T03:50:12;16.40;99.90
18191;DHT22;47004;51.366;12.348;2023-09-08T03:52:15;16.40;99.90
18191;DHT22;47004;51.366;12.348;2023-09-08T03:54:17;16.40;99.90
18191;DHT22;47004;51.366;12.348;2023-09-08T03:56:18;16.30;99.90
18191;DHT22;47004;51.366;12.348;2023-09-08T03:58:20;16.30;99.90
18191;DHT22;47004;51.366;12.348;2023-09-08T04:00:22;16.40;99.90
18191;DHT22;47004;51.366;12.348;2023-09-08T04:02:24;16.40;99.90
18191;DHT22;47004;51.366;12.348;2023-09-08T04:04:25;16.30;99.90
18191;DHT22;47004;51.366;12.348;2023-09-08T04:06:27;16.30;99.90
18191;DHT22;47004;51.366;12.348;2023-09-08T04:08:31;16.20;99.90
18191;DHT22;47004;51.366;12.348;2023-09-08T04:10:33;16.20;99.90
18191;DHT22;47004;51.366;12.348;2023-09-08T04:12:35;16.20;99.90
18191;DHT22;47004;51.366;12.348;2023-09-08T04:14:36;16.10;99.90
18191;DHT22;47004;51.366;12.348;2023-09-08T04:16:38;16.10;99.90
18191;DHT22;47004;51.366;12.348;2023-09-08T04:18:38;16.10;99.90
18191;DHT22;47004;51.366;12.348;2023-09-08T04:20:40;16.10;99.90
18191;DHT22;47004;51.366;12.348;2023-09-08T04:22:42;16.10;99.90
18191;DHT22;47004;51.366;12.348;2023-09-08T04:24:46;16.10;99.90
18191;DHT22;47004;51.366;12.348;2023-09-08T04:26:48;16.00;99.90
18191;DHT22;47004;51.366;12.348;2023-09-08T04:28:50;16.00;99.90
18191;DHT22;47004;51.366;12.348;2023-09-08T04:30:52;16.00;99.90
18191;DHT22;47004;51.366;12.348;2023-09-08T04:32:53;16.00;99.90
18191;DHT22;47004;51.366;12.348;2023-09-08T04:34:55;16.00;99.90
18191;DHT22;47004;51.366;12.348;2023-09-08T04:36:57;16.00;99.90
18191;DHT22;47004;51.366;12.348;2023-09-08T04:38:58;16.00;99.90
18191;DHT22;47004;51.366;12.348;2023-09-08T04:41:01;15.90;99.90
18191;DHT22;47004;51.366;12.348;2023-09-08T04:43:03;15.90;99.90
18191;DHT22;47004;51.366;12.348;2023-09-08T04:45:06;15.90;99.90
18191;DHT22;47004;51.366;12.348;2023-09-08T04:47:08;15.90;99.90
18191;DHT22;47004;51.366;12.348;2023-09-08T04:49:10;15.90;99.90
18191;DHT22;47004;51.366;12.348;2023-09-08T04:51:12;15.90;99.90
18191;DHT22;47004;51.366;12.348;2023-09-08T04:53:14;15.90;99.90
18191;DHT22;47004;51.366;12.348;2023-09-08T04:55:17;15.80;99.90
18191;DHT22;47004;51.366;12.348;2023-09-08T04:57:21;15.80;99.90
18191;DHT22;47004;51.366;12.348;2023-09-08T04:59:23;15.80;99.90
18191;DHT22;47004;51.366;12.348;2023-09-08T05:01:24;15.80;99.90
18191;DHT22;47004;51.366;12.348;2023-09-08T05:03:26;15.80;99.90
18191;DHT22;47004;51.366;12.348;2023-09-08T05:05:28;15.80;99.90
18191;DHT22;47004;51.366;12.348;2023-09-08T05:07:29;15.80;99.90
18191;DHT22;47004;51.366;12.348;2023-09-08T05:09:31;15.80;99.90
18191;DHT22;47004;51.366;12.348;2023-09-08T05:11:34;15.80;99.90
18191;DHT22;47004;51.366;12.348;2023-09-08T05:13:37;15.80;99.90
18191;DHT22;47004;51.366;12.348;2023-09-08T05:15:39;15.80;99.90
18191;DHT22;47004;51.366;12.348;2023-09-08T05:17:43;15.80;99.90
18191;DHT22;47004;51.366;12.348;2023-09-08T05:19:45;15.80;99.90
18191;DHT22;47004;51.366;12.348;2023-09-08T05:21:47;15.80;99.90
18191;DHT22;47004;51.366;12.348;2023-09-08T05:23:49;15.80;99.90
18191;DHT22;47004;51.366;12.348;2023-09-08T05:25:50;15.80;99.90
18191;DHT22;47004;51.366;12.348;2023-09-08T05:27:53;15.80;99.90
18191;DHT22;47004;51.366;12.348;2023-09-08T05:29:56;15.80;99.90
18191;DHT22;47004;51.366;12.348;2023-09-08T05:31:58;15.80;99.90
18191;DHT22;47004;51.366;12.348;2023-09-08T05:34:00;15.80;99.90
18191;DHT22;47004;51.366;12.348;2023-09-08T05:36:02;15.80;99.90
18191;DHT22;47004;51.366;12.348;2023-09-08T05:38:04;15.80;99.90
18191;DHT22;47004;51.366;12.348;2023-09-08T05:40:07;15.80;99.90
18191;DHT22;47004;51.366;12.348;2023-09-08T05:42:09;15.90;99.90
18191;DHT22;47004;51.366;12.348;2023-09-08T05:44:11;15.90;99.90
18191;DHT22;47004;51.366;12.348;2023-09-08T05:46:14;15.90;99.90
18191;DHT22;47004;51.366;12.348;2023-09-08T05:48:16;15.90;99.90
18191;DHT22;47004;51.366;12.348;2023-09-08T05:50:19;15.90;99.90
18191;DHT22;47004;51.366;12.348;2023-09-08T05:52:27;16.00;99.90
18191;DHT22;47004;51.366;12.348;2023-09-08T05:54:29;16.00;99.90
18191;DHT22;47004;51.366;12.348;2023-09-08T05:56:31;16.10;99.90
18191;DHT22;47004;51.366;12.348;2023-09-08T05:58:33;16.10;99.90
18191;DHT22;47004;51.366;12.348;2023-09-08T06:00:35;16.10;99.90
18191;DHT22;47004;51.366;12.348;2023-09-08T06:02:37;16.20;99.90
18191;DHT22;47004;51.366;12.348;2023-09-08T06:04:39;16.20;99.90
18191;DHT22;47004;51.366;12.348;2023-09-08T06:06:41;16.30;99.90
18191;DHT22;47004;51.366;12.348;2023-09-08T06:08:43;16.30;99.90
18191;DHT22;47004;51.366;12.348;2023-09-08T06:10:45;16.40;99.90
18191;DHT22;47004;51.366;12.348;2023-09-08T06:12:47;16.40;99.90
18191;DHT22;47004;51.366;12.348;2023-09-08T06:14:51;16.40;99.90
18191;DHT22;47004;51.366;12.348;2023-09-08T06:16:53;16.40;99.90
18191;DHT22;47004;51.366;12.348;2023-09-08T06:18:56;16.40;99.90
18191;DHT22;47004;51.366;12.348;2023-09-08T06:20:58;16.40;99.90
18191;DHT22;47004;51.366;12.348;2023-09-08T06:23:01;16.40;99.90
18191;DHT22;47004;51.366;12.348;2023-09-08T06:25:04;16.40;99.90
18191;DHT22;47004;51.366;12.348;2023-09-08T06:27:06;16.40;99.90
18191;DHT22;47004;51.366;12.348;2023-09-08T06:29:07;16.40;99.90
18191;DHT22;47004;51.366;12.348;2023-09-08T06:31:11;16.40;99.90
18191;DHT22;47004;51.366;12.348;2023-09-08T06:33:12;16.40;99.90
18191;DHT22;47004;51.366;12.348;2023-09-08T06:35:15;16.30;99.90
18191;DHT22;47004;51.366;12.348;2023-09-08T06:37:17;16.40;99.90
18191;DHT22;47004;51.366;12.348;2023-09-08T06:39:19;16.40;99.90
18191;DHT22;47004;51.366;12.348;2023-09-08T06:41:21;16.30;99.90
18191;DHT22;47004;51.366;12.348;2023-09-08T06:43:24;16.30;99.90
18191;DHT22;47004;51.366;12.348;2023-09-08T06:45:26;16.30;99.90
18191;DHT22;47004;51.366;12.348;2023-09-08T06:47:28;16.30;99.90
18191;DHT22;47004;51.366;12.348;2023-09-08T06:49:30;16.40;99.90
18191;DHT22;47004;51.366;12.348;2023-09-08T06:51:33;16.40;99.90
18191;DHT22;47004;51.366;12.348;2023-09-08T06:53:36;16.50;99.90
18191;DHT22;47004;51.366;12.348;2023-09-08T06:55:38;16.50;99.90
18191;DHT22;47004;51.366;12.348;2023-09-08T06:57:39;16.50;99.90
18191;DHT22;47004;51.366;12.348;2023-09-08T06:59:41;16.60;99.90
18191;DHT22;47004;51.366;12.348;2023-09-08T07:01:43;16.60;99.90
18191;DHT22;47004;51.366;12.348;2023-09-08T07:03:45;16.60;99.90
18191;DHT22;47004;51.366;12.348;2023-09-08T07:05:47;16.60;99.90
18191;DHT22;47004;51.366;12.348;2023-09-08T07:07:50;16.70;99.90
18191;DHT22;47004;51.366;12.348;2023-09-08T07:09:52;16.80;99.90
18191;DHT22;47004;51.366;12.348;2023-09-08T07:11:54;16.80;99.90
18191;DHT22;47004;51.366;12.348;2023-09-08T07:13:56;16.90;99.90
18191;DHT22;47004;51.366;12.348;2023-09-08T07:15:58;16.90;99.90
18191;DHT22;47004;51.366;12.348;2023-09-08T07:18:00;16.90;99.90
18191;DHT22;47004;51.366;12.348;2023-09-08T07:20:01;17.00;99.90
18191;DHT22;47004;51.366;12.348;2023-09-08T07:22:03;17.00;99.90
18191;DHT22;47004;51.366;12.348;2023-09-08T07:24:08;17.10;99.90
18191;DHT22;47004;51.366;12.348;2023-09-08T07:26:10;17.10;99.90
18191;DHT22;47004;51.366;12.348;2023-09-08T07:28:11;17.20;99.90
18191;DHT22;47004;51.366;12.348;2023-09-08T07:30:13;17.20;99.90
18191;DHT22;47004;51.366;12.348;2023-09-08T07:32:16;17.30;99.90
18191;DHT22;47004;51.366;12.348;2023-09-08T07:34:17;17.40;99.90
18191;DHT22;47004;51.366;12.348;2023-09-08T07:36:19;17.40;99.90
18191;DHT22;47004;51.366;12.348;2023-09-08T07:38:20;17.50;99.90
18191;DHT22;47004;51.366;12.348;2023-09-08T07:40:23;17.60;99.90
18191;DHT22;47004;51.366;12.348;2023-09-08T07:42:25;17.60;99.90
18191;DHT22;47004;51.366;12.348;2023-09-08T07:44:27;17.70;99.90
18191;DHT22;47004;51.366;12.348;2023-09-08T07:46:29;17.70;99.90
18191;DHT22;47004;51.366;12.348;2023-09-08T07:48:31;17.80;99.90
18191;DHT22;47004;51.366;12.348;2023-09-08T07:50:33;17.90;99.90
18191;DHT22;47004;51.366;12.348;2023-09-08T07:52:35;17.90;99.90
18191;DHT22;47004;51.366;12.348;2023-09-08T07:54:37;18.00;99.90
18191;DHT22;47004;51.366;12.348;2023-09-08T07:56:40;18.10;99.90
18191;DHT22;47004;51.366;12.348;2023-09-08T07:58:42;18.20;99.90
18191;DHT22;47004;51.366;12.348;2023-09-08T08:00:44;18.30;99.90
18191;DHT22;47004;51.366;12.348;2023-09-08T08:02:48;18.40;99.90
18191;DHT22;47004;51.366;12.348;2023-09-08T08:04:50;18.50;99.90
18191;DHT22;47004;51.366;12.348;2023-09-08T08:06:52;18.60;99.90
18191;DHT22;47004;51.366;12.348;2023-09-08T08:08:54;18.70;99.90
18191;DHT22;47004;51.366;12.348;2023-09-08T08:10:56;18.70;99.90
18191;DHT22;47004;51.366;12.348;2023-09-08T08:13:00;18.90;99.90
18191;DHT22;47004;51.366;12.348;2023-09-08T08:15:02;19.00;99.90
18191;DHT22;47004;51.366;12.348;2023-09-08T08:17:03;19.10;99.90
18191;DHT22;47004;51.366;12.348;2023-09-08T08:19:05;19.20;99.90
18191;DHT22;47004;51.366;12.348;2023-09-08T08:21:07;19.20;99.90
18191;DHT22;47004;51.366;12.348;2023-09-08T08:23:09;19.30;99.90
18191;DHT22;47004;51.366;12.348;2023-09-08T08:25:11;19.40;99.90
18191;DHT22;47004;51.366;12.348;2023-09-08T08:27:13;19.50;99.90
18191;DHT22;47004;51.366;12.348;2023-09-08T08:29:16;19.60;99.90
18191;DHT22;47004;51.366;12.348;2023-09-08T08:31:18;19.60;99.90
18191;DHT22;47004;51.366;12.348;2023-09-08T08:33:20;19.70;99.90
18191;DHT22;47004;51.366;12.348;2023-09-08T08:35:22;19.80;99.90
18191;DHT22;47004;51.366;12.348;2023-09-08T08:37:24;19.90;99.90
18191;DHT22;47004;51.366;12.348;2023-09-08T08:39:28;19.90;99.90
18191;DHT22;47004;51.366;12.348;2023-09-08T08:41:29;20.00;99.90
18191;DHT22;47004;51.366;12.348;2023-09-08T08:43:32;20.10;99.90
18191;DHT22;47004;51.366;12.348;2023-09-08T08:45:37;20.20;99.90
18191;DHT22;47004;51.366;12.348;2023-09-08T08:47:39;20.20;99.90
18191;DHT22;47004;51.366;12.348;2023-09-08T08:49:43;20.40;99.90
18191;DHT22;47004;51.366;12.348;2023-09-08T08:51:48;20.40;99.90
18191;DHT22;47004;51.366;12.348;2023-09-08T08:53:51;20.50;99.90
18191;DHT22;47004;51.366;12.348;2023-09-08T08:55:56;20.70;99.90
18191;DHT22;47004;51.366;12.348;2023-09-08T08:58:03;20.80;99.90
18191;DHT22;47004;51.366;12.348;2023-09-08T09:00:08;20.90;99.90
18191;DHT22;47004;51.366;12.348;2023-09-08T09:02:12;21.00;99.90
18191;DHT22;47004;51.366;12.348;2023-09-08T09:04:16;21.10;99.90
18191;DHT22;47004;51.366;12.348;2023-09-08T09:06:18;21.10;99.90
18191;DHT22;47004;51.366;12.348;2023-09-08T09:08:23;21.20;99.90
18191;DHT22;47004;51.366;12.348;2023-09-08T09:10:24;21.40;99.90
18191;DHT22;47004;51.366;12.348;2023-09-08T09:12:26;21.50;99.90
18191;DHT22;47004;51.366;12.348;2023-09-08T09:14:31;21.50;99.90
18191;DHT22;47004;51.366;12.348;2023-09-08T09:16:40;21.70;99.90
18191;DHT22;47004;51.366;12.348;2023-09-08T09:18:55;21.80;99.90
18191;DHT22;47004;51.366;12.348;2023-09-08T09:20:59;21.90;99.90
18191;DHT22;47004;51.366;12.348;2023-09-08T09:23:01;22.00;99.90
18191;DHT22;47004;51.366;12.348;2023-09-08T09:25:04;22.10;99.90
18191;DHT22;47004;51.366;12.348;2023-09-08T09:27:08;22.20;99.90
18191;DHT22;47004;51.366;12.348;2023-09-08T09:29:12;22.20;99.90
18191;DHT22;47004;51.366;12.348;2023-09-08T09:31:14;22.30;99.90
18191;DHT22;47004;51.366;12.348;2023-09-08T09:33:17;22.40;99.90
18191;DHT22;47004;51.366;12.348;2023-09-08T09:35:22;22.60;99.90
18191;DHT22;47004;51.366;12.348;2023-09-08T09:37:40;22.70;99.90
18191;DHT22;47004;51.366;12.348;2023-09-08T09:39:42;22.90;99.90
18191;DHT22;47004;51.366;12.348;2023-09-08T09:41:53;23.00;99.90
18191;DHT22;47004;51.366;12.348;2023-09-08T09:43:55;23.10;99.90
18191;DHT22;47004;51.366;12.348;2023-09-08T09:45:58;23.10;99.90
18191;DHT22;47004;51.366;12.348;2023-09-08T09:48:00;23.20;99.90
18191;DHT22;47004;51.366;12.348;2023-09-08T09:50:02;23.30;99.90
18191;DHT22;47004;51.366;12.348;2023-09-08T09:52:06;23.40;99.90
18191;DHT22;47004;51.366;12.348;2023-09-08T09:54:08;23.50;99.90
18191;DHT22;47004;51.366;12.348;2023-09-08T09:56:10;23.60;99.90
18191;DHT22;47004;51.366;12.348;2023-09-08T09:58:13;23.60;99.90
18191;DHT22;47004;51.366;12.348;2023-09-08T10:00:17;23.70;99.90
18191;DHT22;47004;51.366;12.348;2023-09-08T10:02:20;23.80;99.90
18191;DHT22;47004;51.366;12.348;2023-09-08T10:04:22;23.90;99.90
18191;DHT22;47004;51.366;12.348;2023-09-08T10:06:26;24.00;99.90
18191;DHT22;47004;51.366;12.348;2023-09-08T10:08:30;24.10;99.90
18191;DHT22;47004;51.366;12.348;2023-09-08T10:10:33;24.20;99.90
18191;DHT22;47004;51.366;12.348;2023-09-08T10:12:37;24.30;99.90
18191;DHT22;47004;51.366;12.348;2023-09-08T10:14:41;24.50;99.90
18191;DHT22;47004;51.366;12.348;2023-09-08T10:16:44;24.50;99.90
18191;DHT22;47004;51.366;12.348;2023-09-08T10:18:51;24.70;99.90
18191;DHT22;47004;51.366;12.348;2023-09-08T10:20:54;24.80;99.90
18191;DHT22;47004;51.366;12.348;2023-09-08T10:23:04;24.90;99.90
18191;DHT22;47004;51.366;12.348;2023-09-08T10:25:12;25.00;99.90
18191;DHT22;47004;51.366;12.348;2023-09-08T10:27:14;25.20;99.90
18191;DHT22;47004;51.366;12.348;2023-09-08T10:29:19;25.30;99.90
18191;DHT22;47004;51.366;12.348;2023-09-08T10:31:23;25.30;99.90
18191;DHT22;47004;51.366;12.348;2023-09-08T10:33:27;25.40;99.90
18191;DHT22;47004;51.366;12.348;2023-09-08T10:35:30;25.60;99.90
18191;DHT22;47004;51.366;12.348;2023-09-08T10:37:32;25.80;99.90
18191;DHT22;47004;51.366;12.348;2023-09-08T10:39:35;25.90;99.90
18191;DHT22;47004;51.366;12.348;2023-09-08T10:41:40;26.00;99.90
18191;DHT22;47004;51.366;12.348;2023-09-08T10:43:43;26.10;99.90
18191;DHT22;47004;51.366;12.348;2023-09-08T10:45:44;26.20;99.90
18191;DHT22;47004;51.366;12.348;2023-09-08T10:47:56;26.30;98.40
18191;DHT22;47004;51.366;12.348;2023-09-08T10:49:59;26.40;99.90
18191;DHT22;47004;51.366;12.348;2023-09-08T10:52:07;26.50;98.30
18191;DHT22;47004;51.366;12.348;2023-09-08T10:54:10;26.60;98.70
18191;DHT22;47004;51.366;12.348;2023-09-08T10:56:12;26.70;98.20
18191;DHT22;47004;51.366;12.348;2023-09-08T10:58:30;26.80;83.00
18191;DHT22;47004;51.366;12.348;2023-09-08T11:00:53;26.90;80.20
18191;DHT22;47004;51.366;12.348;2023-09-08T11:02:57;27.00;79.60
18191;DHT22;47004;51.366;12.348;2023-09-08T11:05:01;27.20;80.10
18191;DHT22;47004;51.366;12.348;2023-09-08T11:07:05;27.30;66.60
18191;DHT22;47004;51.366;12.348;2023-09-08T11:09:07;27.50;61.50
18191;DHT22;47004;51.366;12.348;2023-09-08T11:11:10;27.70;62.50
18191;DHT22;47004;51.366;12.348;2023-09-08T11:13:12;27.70;63.60
18191;DHT22;47004;51.366;12.348;2023-09-08T11:15:16;27.90;60.00
18191;DHT22;47004;51.366;12.348;2023-09-08T11:17:18;28.10;56.70
18191;DHT22;47004;51.366;12.348;2023-09-08T11:19:19;28.20;53.80
18191;DHT22;47004;51.366;12.348;2023-09-08T11:21:21;28.30;54.30
18191;DHT22;47004;51.366;12.348;2023-09-08T11:23:24;28.40;52.20
18191;DHT22;47004;51.366;12.348;2023-09-08T11:25:25;28.60;50.20
18191;DHT22;47004;51.366;12.348;2023-09-08T11:27:29;28.70;50.20
18191;DHT22;47004;51.366;12.348;2023-09-08T11:29:30;28.80;46.00
18191;DHT22;47004;51.366;12.348;2023-09-08T11:31:33;28.90;46.60
18191;DHT22;47004;51.366;12.348;2023-09-08T11:33:36;29.10;46.00
18191;DHT22;47004;51.366;12.348;2023-09-08T11:35:40;29.20;45.80
18191;DHT22;47004;51.366;12.348;2023-09-08T11:37:44;29.30;47.60
18191;DHT22;47004;51.366;12.348;2023-09-08T11:39:47;29.40;45.20
18191;DHT22;47004;51.366;12.348;2023-09-08T11:41:49;29.60;45.00
18191;DHT22;47004;51.366;12.348;2023-09-08T11:43:51;29.70;44.30
18191;DHT22;47004;51.366;12.348;2023-09-08T11:45:53;29.80;43.90
18191;DHT22;47004;51.366;12.348;2023-09-08T11:47:57;30.00;41.80
18191;DHT22;47004;51.366;12.348;2023-09-08T11:49:58;30.10;40.00
18191;DHT22;47004;51.366;12.348;2023-09-08T11:51:59;30.20;40.20
18191;DHT22;47004;51.366;12.348;2023-09-08T11:54:01;30.40;39.90
18191;DHT22;47004;51.366;12.348;2023-09-08T11:56:04;30.60;40.70
18191;DHT22;47004;51.366;12.348;2023-09-08T11:58:06;30.70;39.80
18191;DHT22;47004;51.366;12.348;2023-09-08T12:00:08;30.90;39.00
18191;DHT22;47004;51.366;12.348;2023-09-08T12:02:15;31.00;37.30
18191;DHT22;47004;51.366;12.348;2023-09-08T12:04:19;31.20;35.90
18191;DHT22;47004;51.366;12.348;2023-09-08T12:06:24;31.40;35.10
18191;DHT22;47004;51.366;12.348;2023-09-08T12:08:26;31.60;35.00
18191;DHT22;47004;51.366;12.348;2023-09-08T12:10:28;31.80;33.50
18191;DHT22;47004;51.366;12.348;2023-09-08T12:12:30;31.90;32.80
18191;DHT22;47004;51.366;12.348;2023-09-08T12:14:40;32.10;33.30
18191;DHT22;47004;51.366;12.348;2023-09-08T12:16:43;32.30;31.90
18191;DHT22;47004;51.366;12.348;2023-09-08T12:18:45;32.50;31.50
18191;DHT22;47004;51.366;12.348;2023-09-08T12:21:03;32.70;31.60
18191;DHT22;47004;51.366;12.348;2023-09-08T12:23:15;32.90;31.70
18191;DHT22;47004;51.366;12.348;2023-09-08T12:25:18;33.10;30.50
18191;DHT22;47004;51.366;12.348;2023-09-08T12:27:20;33.30;30.30
18191;DHT22;47004;51.366;12.348;2023-09-08T12:29:22;33.50;29.40
18191;DHT22;47004;51.366;12.348;2023-09-08T12:31:28;33.70;30.00
18191;DHT22;47004;51.366;12.348;2023-09-08T12:33:30;33.90;29.40
18191;DHT22;47004;51.366;12.348;2023-09-08T12:35:32;34.10;29.30
18191;DHT22;47004;51.366;12.348;2023-09-08T12:37:38;34.30;28.90
18191;DHT22;47004;51.366;12.348;2023-09-08T12:39:39;34.50;28.00
18191;DHT22;47004;51.366;12.348;2023-09-08T12:41:41;34.60;27.20
18191;DHT22;47004;51.366;12.348;2023-09-08T12:43:44;34.70;27.20